sensor_id;sensor_type;location;lat;lon;timestamp;P1;durP1;ratioP1;P2;durP2;ratioP2
7831;SDS011;3961;42.058;25.586;2023-03-01T00:01:14;4.13;;;3.03;;
7831;SDS011;3961;42.058;25.586;2023-03-01T00:03:42;3.30;;;3.00;;
7831;SDS011;3961;42.058;25.586;2023-03-01T00:06:08;3.53;;;3.13;;
7831;SDS011;3961;42.058;25.586;2023-03-01T00:08:34;3.40;;;2.90;;
7831;SDS011;3961;42.058;25.586;2023-03-01T00:13:35;3.80;;;3.40;;
7831;SDS011;3961;42.058;25.586;2023-03-01T00:16:05;4.43;;;3.40;;
7831;SDS011;3961;42.058;25.586;2023-03-01T00:18:32;3.30;;;3.00;;
7831;SDS011;3961;42.058;25.586;2023-03-01T00:20:58;3.70;;;3.30;;
7831;SDS011;3961;42.058;25.586;2023-03-01T00:23:24;3.80;;;3.10;;
7831;SDS011;3961;42.058;25.586;2023-03-01T00:25:50;3.90;;;2.90;;
7831;SDS011;3961;42.058;25.586;2023-03-01T00:28:16;3.40;;;3.00;;
7831;SDS011;3961;42.058;25.586;2023-03-01T00:30:42;3.30;;;3.00;;
7831;SDS011;3961;42.058;25.586;2023-03-01T00:33:07;3.90;;;3.50;;
7831;SDS011;3961;42.058;25.586;2023-03-01T00:35:33;3.57;;;3.20;;
7831;SDS011;3961;42.058;25.586;2023-03-01T00:37:59;3.47;;;3.13;;
7831;SDS011;3961;42.058;25.586;2023-03-01T00:40:25;3.30;;;3.00;;
7831;SDS011;3961;42.058;25.586;2023-03-01T00:42:52;3.53;;;3.23;;
7831;SDS011;3961;42.058;25.586;2023-03-01T00:45:17;3.76;;;3.38;;
7831;SDS011;3961;42.058;25.586;2023-03-01T00:47:43;3.23;;;2.93;;
7831;SDS011;3961;42.058;25.586;2023-03-01T00:50:09;3.47;;;3.17;;
7831;SDS011;3961;42.058;25.586;2023-03-01T00:52:36;6.00;;;3.63;;
7831;SDS011;3961;42.058;25.586;2023-03-01T00:55:01;3.47;;;3.17;;
7831;SDS011;3961;42.058;25.586;2023-03-01T00:57:27;4.77;;;2.90;;
7831;SDS011;3961;42.058;25.586;2023-03-01T00:59:52;3.13;;;2.83;;
7831;SDS011;3961;42.058;25.586;2023-03-01T01:02:19;3.50;;;3.20;;
7831;SDS011;3961;42.058;25.586;2023-03-01T01:04:45;3.73;;;3.13;;
7831;SDS011;3961;42.058;25.586;2023-03-01T01:07:11;3.53;;;3.20;;
7831;SDS011;3961;42.058;25.586;2023-03-01T01:09:36;3.30;;;3.00;;
7831;SDS011;3961;42.058;25.586;2023-03-01T01:12:03;3.77;;;2.80;;
7831;SDS011;3961;42.058;25.586;2023-03-01T01:14:28;3.50;;;3.17;;
7831;SDS011;3961;42.058;25.586;2023-03-01T01:16:54;3.37;;;2.73;;
7831;SDS011;3961;42.058;25.586;2023-03-01T01:19:20;3.47;;;3.10;;
7831;SDS011;3961;42.058;25.586;2023-03-01T01:21:46;2.87;;;2.57;;
7831;SDS011;3961;42.058;25.586;2023-03-01T01:24:13;3.30;;;2.87;;
7831;SDS011;3961;42.058;25.586;2023-03-01T01:26:39;4.47;;;2.87;;
7831;SDS011;3961;42.058;25.586;2023-03-01T01:29:05;4.20;;;3.13;;
7831;SDS011;3961;42.058;25.586;2023-03-01T01:31:31;5.00;;;2.90;;
7831;SDS011;3961;42.058;25.586;2023-03-01T01:33:58;3.60;;;3.00;;
7831;SDS011;3961;42.058;25.586;2023-03-01T01:36:25;3.93;;;3.07;;
7831;SDS011;3961;42.058;25.586;2023-03-01T01:38:50;3.67;;;3.37;;
7831;SDS011;3961;42.058;25.586;2023-03-01T01:41:16;3.70;;;3.23;;
7831;SDS011;3961;42.058;25.586;2023-03-01T01:44:28;4.00;;;3.57;;
7831;SDS011;3961;42.058;25.586;2023-03-01T01:46:34;4.07;;;3.43;;
7831;SDS011;3961;42.058;25.586;2023-03-01T01:49:04;4.13;;;3.70;;
7831;SDS011;3961;42.058;25.586;2023-03-01T01:51:34;3.70;;;3.40;;
7831;SDS011;3961;42.058;25.586;2023-03-01T01:54:06;4.00;;;3.70;;
7831;SDS011;3961;42.058;25.586;2023-03-01T01:56:37;4.73;;;4.03;;
7831;SDS011;3961;42.058;25.586;2023-03-01T01:59:09;4.60;;;4.00;;
7831;SDS011;3961;42.058;25.586;2023-03-01T02:01:36;4.07;;;3.67;;
7831;SDS011;3961;42.058;25.586;2023-03-01T02:04:02;3.97;;;3.57;;
7831;SDS011;3961;42.058;25.586;2023-03-01T02:06:29;4.73;;;4.13;;
7831;SDS011;3961;42.058;25.586;2023-03-01T02:09:00;4.73;;;4.23;;
7831;SDS011;3961;42.058;25.586;2023-03-01T02:11:47;4.07;;;3.67;;
7831;SDS011;3961;42.058;25.586;2023-03-01T02:14:14;4.70;;;3.93;;
7831;SDS011;3961;42.058;25.586;2023-03-01T02:16:41;4.10;;;3.70;;
7831;SDS011;3961;42.058;25.586;2023-03-01T02:19:07;4.30;;;3.90;;
7831;SDS011;3961;42.058;25.586;2023-03-01T02:21:42;4.63;;;4.00;;
7831;SDS011;3961;42.058;25.586;2023-03-01T02:26:48;4.60;;;4.03;;
7831;SDS011;3961;42.058;25.586;2023-03-01T02:29:17;5.30;;;4.50;;
7831;SDS011;3961;42.058;25.586;2023-03-01T02:31:43;4.23;;;3.83;;
7831;SDS011;3961;42.058;25.586;2023-03-01T02:34:13;5.33;;;4.00;;
7831;SDS011;3961;42.058;25.586;2023-03-01T02:36:52;4.10;;;3.70;;
7831;SDS011;3961;42.058;25.586;2023-03-01T02:39:31;4.70;;;4.13;;
7831;SDS011;3961;42.058;25.586;2023-03-01T02:42:02;4.60;;;4.20;;
7831;SDS011;3961;42.058;25.586;2023-03-01T02:44:29;5.20;;;4.33;;
7831;SDS011;3961;42.058;25.586;2023-03-01T02:46:55;4.63;;;4.13;;
7831;SDS011;3961;42.058;25.586;2023-03-01T02:49:26;4.80;;;4.30;;
7831;SDS011;3961;42.058;25.586;2023-03-01T02:52:00;4.83;;;4.13;;
7831;SDS011;3961;42.058;25.586;2023-03-01T02:56:59;5.20;;;4.53;;
7831;SDS011;3961;42.058;25.586;2023-03-01T02:59:27;5.33;;;4.23;;
7831;SDS011;3961;42.058;25.586;2023-03-01T03:01:56;7.67;;;4.90;;
7831;SDS011;3961;42.058;25.586;2023-03-01T03:04:22;6.03;;;4.63;;
7831;SDS011;3961;42.058;25.586;2023-03-01T03:06:48;5.30;;;4.60;;
7831;SDS011;3961;42.058;25.586;2023-03-01T03:09:15;7.67;;;5.23;;
7831;SDS011;3961;42.058;25.586;2023-03-01T03:11:41;6.13;;;5.50;;
7831;SDS011;3961;42.058;25.586;2023-03-01T03:14:08;5.47;;;4.67;;
7831;SDS011;3961;42.058;25.586;2023-03-01T03:16:44;6.47;;;5.60;;
7831;SDS011;3961;42.058;25.586;2023-03-01T03:19:12;6.53;;;5.33;;
7831;SDS011;3961;42.058;25.586;2023-03-01T03:21:38;6.63;;;5.37;;
7831;SDS011;3961;42.058;25.586;2023-03-01T03:24:04;7.73;;;5.53;;
7831;SDS011;3961;42.058;25.586;2023-03-01T03:26:30;6.33;;;5.63;;
7831;SDS011;3961;42.058;25.586;2023-03-01T03:28:56;6.83;;;5.93;;
7831;SDS011;3961;42.058;25.586;2023-03-01T03:31:22;6.80;;;5.37;;
7831;SDS011;3961;42.058;25.586;2023-03-01T03:33:48;8.00;;;5.43;;
7831;SDS011;3961;42.058;25.586;2023-03-01T03:36:17;9.47;;;5.60;;
7831;SDS011;3961;42.058;25.586;2023-03-01T03:38:44;6.50;;;5.70;;
7831;SDS011;3961;42.058;25.586;2023-03-01T03:41:10;8.60;;;5.63;;
7831;SDS011;3961;42.058;25.586;2023-03-01T03:43:37;7.63;;;5.43;;
7831;SDS011;3961;42.058;25.586;2023-03-01T03:46:21;7.70;;;5.40;;
7831;SDS011;3961;42.058;25.586;2023-03-01T03:49:05;6.63;;;4.93;;
7831;SDS011;3961;42.058;25.586;2023-03-01T03:51:30;10.43;;;5.33;;
7831;SDS011;3961;42.058;25.586;2023-03-01T03:53:56;9.67;;;6.20;;
7831;SDS011;3961;42.058;25.586;2023-03-01T03:56:21;8.10;;;5.53;;
7831;SDS011;3961;42.058;25.586;2023-03-01T04:01:36;9.37;;;6.47;;
7831;SDS011;3961;42.058;25.586;2023-03-01T04:04:01;10.20;;;6.20;;
7831;SDS011;3961;42.058;25.586;2023-03-01T04:06:29;7.80;;;5.67;;
7831;SDS011;3961;42.058;25.586;2023-03-01T04:08:54;9.60;;;6.10;;
7831;SDS011;3961;42.058;25.586;2023-03-01T04:11:25;7.13;;;5.40;;
7831;SDS011;3961;42.058;25.586;2023-03-01T04:13:54;6.27;;;5.13;;
7831;SDS011;3961;42.058;25.586;2023-03-01T04:16:21;7.53;;;5.27;;
7831;SDS011;3961;42.058;25.586;2023-03-01T04:18:47;7.20;;;5.27;;
7831;SDS011;3961;42.058;25.586;2023-03-01T04:21:13;6.43;;;4.90;;
7831;SDS011;3961;42.058;25.586;2023-03-01T04:23:39;6.23;;;4.57;;
7831;SDS011;3961;42.058;25.586;2023-03-01T04:26:05;4.87;;;4.07;;
7831;SDS011;3961;42.058;25.586;2023-03-01T04:28:38;5.90;;;4.23;;
7831;SDS011;3961;42.058;25.586;2023-03-01T04:31:09;8.70;;;4.07;;
7831;SDS011;3961;42.058;25.586;2023-03-01T04:33:41;5.37;;;3.80;;
7831;SDS011;3961;42.058;25.586;2023-03-01T04:38:34;5.40;;;4.10;;
7831;SDS011;3961;42.058;25.586;2023-03-01T04:41:03;4.70;;;3.43;;
7831;SDS011;3961;42.058;25.586;2023-03-01T04:43:32;4.43;;;3.50;;
7831;SDS011;3961;42.058;25.586;2023-03-01T04:45:59;6.10;;;3.77;;
7831;SDS011;3961;42.058;25.586;2023-03-01T04:48:30;5.10;;;3.93;;
7831;SDS011;3961;42.058;25.586;2023-03-01T04:50:57;6.23;;;4.17;;
7831;SDS011;3961;42.058;25.586;2023-03-01T04:53:24;4.67;;;3.67;;
7831;SDS011;3961;42.058;25.586;2023-03-01T04:55:49;4.47;;;3.70;;
7831;SDS011;3961;42.058;25.586;2023-03-01T04:58:15;4.17;;;3.43;;
7831;SDS011;3961;42.058;25.586;2023-03-01T05:00:41;4.67;;;3.60;;
7831;SDS011;3961;42.058;25.586;2023-03-01T05:03:07;4.83;;;3.90;;
7831;SDS011;3961;42.058;25.586;2023-03-01T05:05:34;5.37;;;3.57;;
7831;SDS011;3961;42.058;25.586;2023-03-01T05:08:02;4.87;;;3.77;;
7831;SDS011;3961;42.058;25.586;2023-03-01T05:10:31;6.70;;;3.73;;
7831;SDS011;3961;42.058;25.586;2023-03-01T05:13:00;6.17;;;4.30;;
7831;SDS011;3961;42.058;25.586;2023-03-01T05:15:26;5.63;;;4.20;;
7831;SDS011;3961;42.058;25.586;2023-03-01T05:17:54;5.40;;;3.97;;
7831;SDS011;3961;42.058;25.586;2023-03-01T05:20:21;6.53;;;3.63;;
7831;SDS011;3961;42.058;25.586;2023-03-01T05:22:50;7.90;;;4.60;;
7831;SDS011;3961;42.058;25.586;2023-03-01T05:25:17;6.47;;;4.57;;
7831;SDS011;3961;42.058;25.586;2023-03-01T05:27:43;5.83;;;4.40;;
7831;SDS011;3961;42.058;25.586;2023-03-01T05:30:09;7.27;;;4.83;;
7831;SDS011;3961;42.058;25.586;2023-03-01T05:32:43;5.50;;;4.13;;
7831;SDS011;3961;42.058;25.586;2023-03-01T05:35:13;11.27;;;4.65;;
7831;SDS011;3961;42.058;25.586;2023-03-01T05:37:44;5.87;;;4.47;;
7831;SDS011;3961;42.058;25.586;2023-03-01T05:40:13;5.77;;;4.20;;
7831;SDS011;3961;42.058;25.586;2023-03-01T05:42:50;7.27;;;5.00;;
7831;SDS011;3961;42.058;25.586;2023-03-01T05:45:18;8.07;;;5.03;;
7831;SDS011;3961;42.058;25.586;2023-03-01T05:47:44;6.00;;;4.20;;
7831;SDS011;3961;42.058;25.586;2023-03-01T05:50:14;7.63;;;5.63;;
7831;SDS011;3961;42.058;25.586;2023-03-01T05:52:45;7.80;;;5.33;;
7831;SDS011;3961;42.058;25.586;2023-03-01T05:55:22;8.57;;;5.23;;
7831;SDS011;3961;42.058;25.586;2023-03-01T05:57:48;7.17;;;4.93;;
7831;SDS011;3961;42.058;25.586;2023-03-01T06:00:15;9.10;;;5.50;;
7831;SDS011;3961;42.058;25.586;2023-03-01T06:02:43;7.70;;;4.77;;
7831;SDS011;3961;42.058;25.586;2023-03-01T06:05:09;9.83;;;5.90;;
7831;SDS011;3961;42.058;25.586;2023-03-01T06:07:36;7.90;;;5.20;;
7831;SDS011;3961;42.058;25.586;2023-03-01T06:10:03;8.33;;;5.60;;
7831;SDS011;3961;42.058;25.586;2023-03-01T06:12:30;7.73;;;5.80;;
7831;SDS011;3961;42.058;25.586;2023-03-01T06:14:59;9.33;;;6.03;;
7831;SDS011;3961;42.058;25.586;2023-03-01T06:17:25;8.30;;;5.80;;
7831;SDS011;3961;42.058;25.586;2023-03-01T06:19:53;9.87;;;5.90;;
7831;SDS011;3961;42.058;25.586;2023-03-01T06:22:19;8.03;;;5.87;;
7831;SDS011;3961;42.058;25.586;2023-03-01T06:24:45;9.93;;;6.10;;
7831;SDS011;3961;42.058;25.586;2023-03-01T06:27:11;11.47;;;6.53;;
7831;SDS011;3961;42.058;25.586;2023-03-01T06:29:36;8.87;;;5.63;;
7831;SDS011;3961;42.058;25.586;2023-03-01T06:32:02;9.83;;;5.50;;
7831;SDS011;3961;42.058;25.586;2023-03-01T06:34:28;9.23;;;6.10;;
7831;SDS011;3961;42.058;25.586;2023-03-01T06:36:54;9.33;;;6.53;;
7831;SDS011;3961;42.058;25.586;2023-03-01T06:39:19;8.33;;;6.57;;
7831;SDS011;3961;42.058;25.586;2023-03-01T06:41:45;10.07;;;5.70;;
7831;SDS011;3961;42.058;25.586;2023-03-01T06:44:11;8.83;;;6.43;;
7831;SDS011;3961;42.058;25.586;2023-03-01T06:46:36;11.33;;;5.73;;
7831;SDS011;3961;42.058;25.586;2023-03-01T06:49:02;11.03;;;5.70;;
7831;SDS011;3961;42.058;25.586;2023-03-01T06:51:32;9.63;;;6.07;;
7831;SDS011;3961;42.058;25.586;2023-03-01T06:53:58;11.37;;;5.93;;
7831;SDS011;3961;42.058;25.586;2023-03-01T06:56:23;7.70;;;5.40;;
7831;SDS011;3961;42.058;25.586;2023-03-01T06:58:50;8.17;;;5.67;;
7831;SDS011;3961;42.058;25.586;2023-03-01T07:01:16;12.17;;;5.87;;
7831;SDS011;3961;42.058;25.586;2023-03-01T07:03:41;8.07;;;6.07;;
7831;SDS011;3961;42.058;25.586;2023-03-01T07:06:09;7.20;;;5.53;;
7831;SDS011;3961;42.058;25.586;2023-03-01T07:08:35;6.30;;;5.00;;
7831;SDS011;3961;42.058;25.586;2023-03-01T07:11:00;8.33;;;5.30;;
7831;SDS011;3961;42.058;25.586;2023-03-01T07:13:27;19.00;;;14.23;;
7831;SDS011;3961;42.058;25.586;2023-03-01T07:15:53;25.53;;;15.57;;
7831;SDS011;3961;42.058;25.586;2023-03-01T07:18:18;11.67;;;7.43;;
7831;SDS011;3961;42.058;25.586;2023-03-01T07:20:44;6.90;;;5.17;;
7831;SDS011;3961;42.058;25.586;2023-03-01T07:23:10;8.43;;;5.20;;
7831;SDS011;3961;42.058;25.586;2023-03-01T07:25:35;7.93;;;5.17;;
7831;SDS011;3961;42.058;25.586;2023-03-01T07:28:01;8.63;;;5.33;;
7831;SDS011;3961;42.058;25.586;2023-03-01T07:30:26;7.73;;;6.40;;
7831;SDS011;3961;42.058;25.586;2023-03-01T07:32:54;9.20;;;5.97;;
7831;SDS011;3961;42.058;25.586;2023-03-01T07:35:21;9.80;;;5.80;;
7831;SDS011;3961;42.058;25.586;2023-03-01T07:37:47;8.30;;;6.13;;
7831;SDS011;3961;42.058;25.586;2023-03-01T07:40:13;9.50;;;5.70;;
7831;SDS011;3961;42.058;25.586;2023-03-01T07:42:38;7.90;;;5.83;;
7831;SDS011;3961;42.058;25.586;2023-03-01T07:45:04;12.00;;;9.23;;
7831;SDS011;3961;42.058;25.586;2023-03-01T07:47:31;25.83;;;17.63;;
7831;SDS011;3961;42.058;25.586;2023-03-01T07:49:57;21.63;;;16.20;;
7831;SDS011;3961;42.058;25.586;2023-03-01T07:52:22;8.07;;;5.23;;
7831;SDS011;3961;42.058;25.586;2023-03-01T07:54:48;5.57;;;4.97;;
7831;SDS011;3961;42.058;25.586;2023-03-01T07:57:14;7.23;;;5.53;;
7831;SDS011;3961;42.058;25.586;2023-03-01T07:59:39;8.70;;;5.50;;
7831;SDS011;3961;42.058;25.586;2023-03-01T08:02:05;13.60;;;7.20;;
7831;SDS011;3961;42.058;25.586;2023-03-01T08:04:31;8.03;;;6.80;;
7831;SDS011;3961;42.058;25.586;2023-03-01T08:06:58;9.07;;;6.70;;
7831;SDS011;3961;42.058;25.586;2023-03-01T08:09:24;12.37;;;8.73;;
7831;SDS011;3961;42.058;25.586;2023-03-01T08:11:50;10.93;;;8.00;;
7831;SDS011;3961;42.058;25.586;2023-03-01T08:14:16;13.00;;;8.13;;
7831;SDS011;3961;42.058;25.586;2023-03-01T08:16:41;9.80;;;8.10;;
7831;SDS011;3961;42.058;25.586;2023-03-01T08:19:08;11.77;;;8.90;;
7831;SDS011;3961;42.058;25.586;2023-03-01T08:21:35;15.20;;;10.50;;
7831;SDS011;3961;42.058;25.586;2023-03-01T08:24:02;11.93;;;9.37;;
7831;SDS011;3961;42.058;25.586;2023-03-01T08:26:30;16.37;;;11.00;;
7831;SDS011;3961;42.058;25.586;2023-03-01T08:28:55;46.23;;;32.13;;
7831;SDS011;3961;42.058;25.586;2023-03-01T08:31:25;13.23;;;9.77;;
7831;SDS011;3961;42.058;25.586;2023-03-01T08:33:54;12.10;;;9.30;;
7831;SDS011;3961;42.058;25.586;2023-03-01T08:36:23;14.70;;;10.33;;
7831;SDS011;3961;42.058;25.586;2023-03-01T08:38:51;11.47;;;9.03;;
7831;SDS011;3961;42.058;25.586;2023-03-01T08:41:17;12.70;;;9.13;;
7831;SDS011;3961;42.058;25.586;2023-03-01T08:43:42;12.03;;;9.00;;
7831;SDS011;3961;42.058;25.586;2023-03-01T08:46:08;12.57;;;9.47;;
7831;SDS011;3961;42.058;25.586;2023-03-01T08:48:33;12.60;;;9.10;;
7831;SDS011;3961;42.058;25.586;2023-03-01T08:51:09;12.30;;;9.27;;
7831;SDS011;3961;42.058;25.586;2023-03-01T08:53:38;13.97;;;9.80;;
7831;SDS011;3961;42.058;25.586;2023-03-01T08:56:04;11.67;;;9.60;;
7831;SDS011;3961;42.058;25.586;2023-03-01T08:58:31;17.70;;;11.50;;
7831;SDS011;3961;42.058;25.586;2023-03-01T09:00:57;10.33;;;9.17;;
7831;SDS011;3961;42.058;25.586;2023-03-01T09:03:23;13.07;;;10.03;;
7831;SDS011;3961;42.058;25.586;2023-03-01T09:05:50;12.53;;;9.40;;
7831;SDS011;3961;42.058;25.586;2023-03-01T09:08:16;11.50;;;9.40;;
7831;SDS011;3961;42.058;25.586;2023-03-01T09:10:42;12.00;;;8.93;;
7831;SDS011;3961;42.058;25.586;2023-03-01T09:13:08;11.60;;;8.53;;
7831;SDS011;3961;42.058;25.586;2023-03-01T09:15:36;14.73;;;9.30;;
7831;SDS011;3961;42.058;25.586;2023-03-01T09:18:02;10.80;;;8.77;;
7831;SDS011;3961;42.058;25.586;2023-03-01T09:20:28;13.60;;;8.97;;
7831;SDS011;3961;42.058;25.586;2023-03-01T09:22:55;10.80;;;8.97;;
7831;SDS011;3961;42.058;25.586;2023-03-01T09:25:21;13.60;;;10.40;;
7831;SDS011;3961;42.058;25.586;2023-03-01T09:27:50;17.87;;;10.87;;
7831;SDS011;3961;42.058;25.586;2023-03-01T09:30:16;14.60;;;10.47;;
7831;SDS011;3961;42.058;25.586;2023-03-01T09:32:42;13.13;;;10.37;;
7831;SDS011;3961;42.058;25.586;2023-03-01T09:35:10;11.93;;;9.20;;
7831;SDS011;3961;42.058;25.586;2023-03-01T09:37:36;17.73;;;9.67;;
7831;SDS011;3961;42.058;25.586;2023-03-01T09:40:04;11.90;;;9.60;;
7831;SDS011;3961;42.058;25.586;2023-03-01T09:42:32;13.93;;;10.50;;
7831;SDS011;3961;42.058;25.586;2023-03-01T09:45:04;11.30;;;9.67;;
7831;SDS011;3961;42.058;25.586;2023-03-01T09:47:36;14.73;;;9.43;;
7831;SDS011;3961;42.058;25.586;2023-03-01T09:50:05;9.63;;;8.43;;
7831;SDS011;3961;42.058;25.586;2023-03-01T10:01:27;18.43;;;10.23;;
7831;SDS011;3961;42.058;25.586;2023-03-01T10:06:54;13.23;;;10.13;;
7831;SDS011;3961;42.058;25.586;2023-03-01T10:09:26;11.30;;;8.57;;
7831;SDS011;3961;42.058;25.586;2023-03-01T10:11:57;11.73;;;9.00;;
7831;SDS011;3961;42.058;25.586;2023-03-01T10:14:31;12.00;;;10.20;;
7831;SDS011;3961;42.058;25.586;2023-03-01T10:16:58;13.83;;;10.53;;
7831;SDS011;3961;42.058;25.586;2023-03-01T10:19:46;13.80;;;11.07;;
7831;SDS011;3961;42.058;25.586;2023-03-01T10:22:19;13.33;;;10.90;;
7831;SDS011;3961;42.058;25.586;2023-03-01T10:24:49;15.87;;;10.63;;
7831;SDS011;3961;42.058;25.586;2023-03-01T10:27:22;14.07;;;11.20;;
7831;SDS011;3961;42.058;25.586;2023-03-01T10:32:14;11.77;;;9.87;;
7831;SDS011;3961;42.058;25.586;2023-03-01T10:34:40;14.97;;;9.97;;
7831;SDS011;3961;42.058;25.586;2023-03-01T10:37:11;11.37;;;9.50;;
7831;SDS011;3961;42.058;25.586;2023-03-01T10:39:54;12.47;;;9.97;;
7831;SDS011;3961;42.058;25.586;2023-03-01T10:42:26;13.83;;;10.60;;
7831;SDS011;3961;42.058;25.586;2023-03-01T10:45:17;13.03;;;10.00;;
7831;SDS011;3961;42.058;25.586;2023-03-01T10:50:36;15.83;;;10.53;;
7831;SDS011;3961;42.058;25.586;2023-03-01T10:53:04;12.10;;;10.10;;
7831;SDS011;3961;42.058;25.586;2023-03-01T10:55:31;14.43;;;10.73;;
7831;SDS011;3961;42.058;25.586;2023-03-01T10:58:17;13.77;;;10.70;;
7831;SDS011;3961;42.058;25.586;2023-03-01T11:00:46;12.13;;;9.83;;
7831;SDS011;3961;42.058;25.586;2023-03-01T11:03:19;16.60;;;11.67;;
7831;SDS011;3961;42.058;25.586;2023-03-01T11:08:41;13.40;;;10.37;;
7831;SDS011;3961;42.058;25.586;2023-03-01T11:16:44;14.97;;;10.63;;
7831;SDS011;3961;42.058;25.586;2023-03-01T11:24:43;11.63;;;9.17;;
7831;SDS011;3961;42.058;25.586;2023-03-01T11:29:41;14.70;;;9.80;;
7831;SDS011;3961;42.058;25.586;2023-03-01T11:32:16;14.00;;;9.93;;
7831;SDS011;3961;42.058;25.586;2023-03-01T11:34:51;11.80;;;9.53;;
7831;SDS011;3961;42.058;25.586;2023-03-01T11:37:29;11.50;;;8.97;;
7831;SDS011;3961;42.058;25.586;2023-03-01T11:48:33;10.60;;;7.67;;
7831;SDS011;3961;42.058;25.586;2023-03-01T11:51:02;13.50;;;7.70;;
7831;SDS011;3961;42.058;25.586;2023-03-01T11:59:08;14.17;;;8.30;;
7831;SDS011;3961;42.058;25.586;2023-03-01T12:04:43;15.70;;;9.30;;
7831;SDS011;3961;42.058;25.586;2023-03-01T12:12:47;10.73;;;9.10;;
7831;SDS011;3961;42.058;25.586;2023-03-01T12:26:44;17.70;;;11.63;;
7831;SDS011;3961;42.058;25.586;2023-03-01T12:29:40;12.87;;;9.80;;
7831;SDS011;3961;42.058;25.586;2023-03-01T12:37:31;13.60;;;10.40;;
7831;SDS011;3961;42.058;25.586;2023-03-01T12:40:03;14.27;;;9.47;;
7831;SDS011;3961;42.058;25.586;2023-03-01T12:50:47;16.77;;;10.37;;
7831;SDS011;3961;42.058;25.586;2023-03-01T12:53:27;17.93;;;10.77;;
7831;SDS011;3961;42.058;25.586;2023-03-01T12:56:06;18.07;;;12.37;;
7831;SDS011;3961;42.058;25.586;2023-03-01T13:01:39;17.70;;;12.37;;
7831;SDS011;3961;42.058;25.586;2023-03-01T13:04:14;17.97;;;11.77;;
7831;SDS011;3961;42.058;25.586;2023-03-01T13:06:44;18.53;;;12.33;;
7831;SDS011;3961;42.058;25.586;2023-03-01T13:11:48;19.47;;;11.10;;
7831;SDS011;3961;42.058;25.586;2023-03-01T13:16:46;19.57;;;12.87;;
7831;SDS011;3961;42.058;25.586;2023-03-01T13:19:18;14.67;;;10.60;;
7831;SDS011;3961;42.058;25.586;2023-03-01T13:21:46;17.03;;;11.53;;
7831;SDS011;3961;42.058;25.586;2023-03-01T13:27:09;15.37;;;10.90;;
7831;SDS011;3961;42.058;25.586;2023-03-01T13:29:52;19.30;;;11.70;;
7831;SDS011;3961;42.058;25.586;2023-03-01T13:32:21;20.00;;;11.57;;
7831;SDS011;3961;42.058;25.586;2023-03-01T13:34:48;40.73;;;23.77;;
7831;SDS011;3961;42.058;25.586;2023-03-01T13:37:23;21.43;;;13.53;;
7831;SDS011;3961;42.058;25.586;2023-03-01T13:39:51;24.30;;;14.23;;
7831;SDS011;3961;42.058;25.586;2023-03-01T13:42:37;25.20;;;17.17;;
7831;SDS011;3961;42.058;25.586;2023-03-01T13:45:12;22.80;;;16.17;;
7831;SDS011;3961;42.058;25.586;2023-03-01T13:47:42;22.40;;;15.63;;
7831;SDS011;3961;42.058;25.586;2023-03-01T13:50:16;23.30;;;15.33;;
7831;SDS011;3961;42.058;25.586;2023-03-01T13:52:50;20.60;;;14.30;;
7831;SDS011;3961;42.058;25.586;2023-03-01T13:57:57;22.63;;;14.33;;
7831;SDS011;3961;42.058;25.586;2023-03-01T14:03:08;20.10;;;13.40;;
7831;SDS011;3961;42.058;25.586;2023-03-01T14:06:03;17.97;;;13.20;;
7831;SDS011;3961;42.058;25.586;2023-03-01T14:08:34;22.40;;;14.30;;
7831;SDS011;3961;42.058;25.586;2023-03-01T14:11:16;22.03;;;14.23;;
7831;SDS011;3961;42.058;25.586;2023-03-01T14:13:54;22.87;;;14.63;;
7831;SDS011;3961;42.058;25.586;2023-03-01T14:21:39;17.00;;;12.87;;
7831;SDS011;3961;42.058;25.586;2023-03-01T14:24:05;23.03;;;13.43;;
7831;SDS011;3961;42.058;25.586;2023-03-01T14:26:31;21.50;;;13.63;;
7831;SDS011;3961;42.058;25.586;2023-03-01T14:29:00;19.23;;;12.43;;
7831;SDS011;3961;42.058;25.586;2023-03-01T14:31:31;15.07;;;10.90;;
7831;SDS011;3961;42.058;25.586;2023-03-01T14:33:58;16.27;;;11.40;;
7831;SDS011;3961;42.058;25.586;2023-03-01T14:36:28;14.63;;;10.80;;
7831;SDS011;3961;42.058;25.586;2023-03-01T14:38:55;15.50;;;10.70;;
7831;SDS011;3961;42.058;25.586;2023-03-01T14:41:24;16.00;;;11.60;;
7831;SDS011;3961;42.058;25.586;2023-03-01T14:43:55;19.17;;;11.47;;
7831;SDS011;3961;42.058;25.586;2023-03-01T14:46:32;18.93;;;13.07;;
7831;SDS011;3961;42.058;25.586;2023-03-01T14:51:35;19.87;;;12.57;;
7831;SDS011;3961;42.058;25.586;2023-03-01T14:54:03;19.77;;;13.03;;
7831;SDS011;3961;42.058;25.586;2023-03-01T14:56:44;18.53;;;13.20;;
7831;SDS011;3961;42.058;25.586;2023-03-01T14:59:11;21.07;;;13.80;;
7831;SDS011;3961;42.058;25.586;2023-03-01T15:01:36;17.80;;;13.60;;
7831;SDS011;3961;42.058;25.586;2023-03-01T15:04:02;17.40;;;13.10;;
7831;SDS011;3961;42.058;25.586;2023-03-01T15:06:28;23.03;;;14.07;;
7831;SDS011;3961;42.058;25.586;2023-03-01T15:08:55;22.70;;;13.70;;
7831;SDS011;3961;42.058;25.586;2023-03-01T15:11:23;22.00;;;14.43;;
7831;SDS011;3961;42.058;25.586;2023-03-01T15:13:55;19.93;;;13.73;;
7831;SDS011;3961;42.058;25.586;2023-03-01T15:16:25;22.60;;;14.13;;
7831;SDS011;3961;42.058;25.586;2023-03-01T15:18:55;20.57;;;13.53;;
7831;SDS011;3961;42.058;25.586;2023-03-01T15:21:27;20.00;;;13.73;;
7831;SDS011;3961;42.058;25.586;2023-03-01T15:24:19;21.07;;;14.17;;
7831;SDS011;3961;42.058;25.586;2023-03-01T15:29:20;24.33;;;15.43;;
7831;SDS011;3961;42.058;25.586;2023-03-01T15:34:38;22.70;;;15.47;;
7831;SDS011;3961;42.058;25.586;2023-03-01T15:37:04;24.73;;;16.33;;
7831;SDS011;3961;42.058;25.586;2023-03-01T15:39:43;48.53;;;31.97;;
7831;SDS011;3961;42.058;25.586;2023-03-01T15:45:37;26.77;;;16.97;;
7831;SDS011;3961;42.058;25.586;2023-03-01T15:47:40;30.53;;;17.07;;
7831;SDS011;3961;42.058;25.586;2023-03-01T15:50:17;26.80;;;17.13;;
7831;SDS011;3961;42.058;25.586;2023-03-01T15:52:45;26.53;;;17.20;;
7831;SDS011;3961;42.058;25.586;2023-03-01T15:55:18;28.10;;;17.10;;
7831;SDS011;3961;42.058;25.586;2023-03-01T15:57:45;27.73;;;16.27;;
7831;SDS011;3961;42.058;25.586;2023-03-01T16:00:12;28.57;;;16.70;;
7831;SDS011;3961;42.058;25.586;2023-03-01T16:02:39;27.83;;;16.60;;
7831;SDS011;3961;42.058;25.586;2023-03-01T16:05:08;32.07;;;17.33;;
7831;SDS011;3961;42.058;25.586;2023-03-01T16:07:43;28.50;;;18.90;;
7831;SDS011;3961;42.058;25.586;2023-03-01T16:10:09;27.57;;;16.63;;
7831;SDS011;3961;42.058;25.586;2023-03-01T16:12:35;27.07;;;16.70;;
7831;SDS011;3961;42.058;25.586;2023-03-01T16:15:00;28.53;;;17.10;;
7831;SDS011;3961;42.058;25.586;2023-03-01T16:17:26;28.87;;;17.27;;
7831;SDS011;3961;42.058;25.586;2023-03-01T16:19:51;27.83;;;17.60;;
7831;SDS011;3961;42.058;25.586;2023-03-01T16:22:17;24.87;;;16.03;;
7831;SDS011;3961;42.058;25.586;2023-03-01T16:24:42;27.13;;;17.33;;
7831;SDS011;3961;42.058;25.586;2023-03-01T16:27:09;25.13;;;16.97;;
7831;SDS011;3961;42.058;25.586;2023-03-01T16:29:35;28.67;;;16.20;;
7831;SDS011;3961;42.058;25.586;2023-03-01T16:32:00;24.97;;;16.73;;
7831;SDS011;3961;42.058;25.586;2023-03-01T16:34:26;29.00;;;16.93;;
7831;SDS011;3961;42.058;25.586;2023-03-01T16:36:52;28.07;;;17.17;;
7831;SDS011;3961;42.058;25.586;2023-03-01T16:39:17;23.73;;;16.33;;
7831;SDS011;3961;42.058;25.586;2023-03-01T16:41:43;31.03;;;16.63;;
7831;SDS011;3961;42.058;25.586;2023-03-01T16:44:08;25.30;;;16.17;;
7831;SDS011;3961;42.058;25.586;2023-03-01T16:46:34;31.57;;;15.67;;
7831;SDS011;3961;42.058;25.586;2023-03-01T16:49:00;24.80;;;16.07;;
7831;SDS011;3961;42.058;25.586;2023-03-01T16:51:25;26.30;;;15.40;;
7831;SDS011;3961;42.058;25.586;2023-03-01T16:53:51;27.27;;;15.67;;
7831;SDS011;3961;42.058;25.586;2023-03-01T16:56:17;28.03;;;16.93;;
7831;SDS011;3961;42.058;25.586;2023-03-01T16:58:43;29.00;;;18.77;;
7831;SDS011;3961;42.058;25.586;2023-03-01T17:01:16;30.67;;;17.60;;
7831;SDS011;3961;42.058;25.586;2023-03-01T17:03:44;36.90;;;18.83;;
7831;SDS011;3961;42.058;25.586;2023-03-01T17:06:12;27.17;;;17.20;;